createdAt,value
2018-12-03T00:01:46.072Z,8.10
2018-12-03T00:04:15.228Z,7.53
2018-12-03T00:06:43.202Z,7.40
2018-12-03T00:09:14.184Z,7.60
2018-12-03T00:11:41.623Z,7.47
2018-12-03T00:14:09.012Z,6.83
2018-12-03T00:16:36.444Z,7.03
2018-12-03T00:19:04.170Z,7.77
2018-12-03T00:21:31.677Z,6.53
2018-12-03T00:23:59.163Z,7.03
2018-12-03T00:26:26.632Z,6.30
2018-12-03T00:28:54.104Z,11.67
2018-12-03T00:31:21.621Z,14.23
2018-12-03T00:33:49.136Z,6.90
2018-12-03T00:36:16.620Z,5.50
2018-12-03T00:38:44.116Z,6.40
2018-12-03T00:41:11.661Z,5.30
2018-12-03T00:43:39.149Z,5.90
2018-12-03T00:46:06.548Z,5.97
2018-12-03T00:48:33.945Z,5.90
2018-12-03T00:51:01.305Z,6.30
2018-12-03T00:53:28.673Z,5.33
2018-12-03T00:55:56.090Z,5.27
2018-12-03T00:58:23.448Z,6.97
2018-12-03T01:00:50.834Z,5.27
2018-12-03T01:03:18.223Z,4.80
2018-12-03T01:05:45.611Z,5.43
2018-12-03T01:08:13.004Z,5.43
2018-12-03T01:10:40.404Z,5.03
2018-12-03T01:13:07.816Z,5.37
2018-12-03T01:15:35.268Z,5.40
2018-12-03T01:18:02.680Z,4.77
2018-12-03T01:20:30.040Z,5.57
2018-12-03T01:22:57.420Z,7.40
2018-12-03T01:25:24.812Z,8.00
2018-12-03T01:27:52.201Z,5.53
2018-12-03T01:30:19.600Z,6.10
2018-12-03T01:32:47.024Z,7.50
2018-12-03T01:35:14.429Z,6.00
2018-12-03T01:37:41.796Z,7.13
2018-12-03T01:40:10.272Z,6.43
2018-12-03T01:42:38.248Z,5.90
2018-12-03T01:45:08.480Z,6.17
2018-12-03T01:47:35.872Z,6.33
2018-12-03T01:50:04.495Z,7.70
2018-12-03T01:52:31.876Z,8.87
2018-12-03T01:54:59.276Z,8.63
2018-12-03T01:57:26.637Z,10.57
2018-12-03T01:59:54.012Z,7.93
2018-12-03T02:02:21.388Z,9.63
2018-12-03T02:04:48.755Z,8.90
2018-12-03T02:07:16.162Z,8.60
2018-12-03T02:09:43.552Z,8.60
2018-12-03T02:12:10.933Z,10.10
2018-12-03T02:14:38.332Z,8.43
2018-12-03T02:17:05.724Z,7.77
2018-12-03T02:19:33.093Z,5.93
2018-12-03T02:22:00.452Z,5.73
2018-12-03T02:24:27.852Z,6.70
2018-12-03T02:26:55.214Z,6.23
2018-12-03T02:29:22.576Z,7.30
2018-12-03T02:31:49.960Z,6.70
2018-12-03T02:34:17.331Z,5.57
2018-12-03T02:36:44.733Z,7.70
2018-12-03T02:39:12.109Z,5.63
2018-12-03T02:41:39.484Z,8.13
2018-12-03T02:44:07.839Z,10.50
2018-12-03T02:46:35.213Z,6.97
2018-12-03T02:49:02.600Z,7.23
2018-12-03T02:51:29.983Z,7.30
2018-12-03T02:53:57.360Z,6.10
2018-12-03T02:56:24.729Z,7.20
2018-12-03T02:58:52.113Z,5.80
2018-12-03T03:01:19.496Z,5.73
2018-12-03T03:03:46.856Z,5.93
2018-12-03T03:06:14.232Z,6.43
2018-12-03T03:08:41.631Z,6.13
2018-12-03T03:11:09.001Z,6.10
2018-12-03T03:13:36.380Z,5.80
2018-12-03T03:16:03.839Z,6.50
2018-12-03T03:18:31.204Z,7.10
2018-12-03T03:20:58.574Z,8.37
2018-12-03T03:23:25.968Z,6.47
2018-12-03T03:25:53.649Z,5.60
2018-12-03T03:28:21.012Z,6.27
2018-12-03T03:30:48.398Z,6.87
2018-12-03T03:33:15.793Z,7.67
2018-12-03T03:35:43.165Z,6.20
2018-12-03T03:38:10.548Z,6.77
2018-12-03T03:40:37.960Z,6.93
2018-12-03T03:43:05.716Z,7.50
2018-12-03T03:45:33.100Z,7.43
2018-12-03T03:48:00.488Z,5.70
2018-12-03T03:50:31.458Z,7.00
2018-12-03T03:52:58.845Z,6.90
2018-12-03T03:55:26.216Z,5.80
2018-12-03T03:57:53.576Z,7.13
2018-12-03T04:00:21.022Z,9.17
2018-12-03T04:02:48.412Z,7.40
2018-12-03T04:05:15.813Z,7.70
2018-12-03T04:07:44.316Z,7.87
2018-12-03T04:10:12.380Z,9.03
2018-12-03T04:12:40.367Z,9.07
2018-12-03T04:15:09.100Z,10.07
2018-12-03T04:17:36.477Z,7.80
2018-12-03T04:20:09.104Z,10.40
2018-12-03T04:22:36.486Z,8.63
2018-12-03T04:25:05.027Z,11.27
2018-12-03T04:27:33.404Z,9.10
2018-12-03T04:30:00.784Z,12.80
2018-12-03T04:32:28.152Z,11.50
2018-12-03T04:34:55.534Z,8.77
2018-12-03T04:37:29.196Z,9.50
2018-12-03T04:39:56.559Z,11.27
2018-12-03T04:42:23.946Z,8.43
2018-12-03T04:44:51.312Z,11.80
2018-12-03T04:47:18.675Z,9.87
2018-12-03T04:49:46.070Z,7.80
2018-12-03T04:52:13.440Z,9.57
2018-12-03T04:54:40.804Z,9.67
2018-12-03T04:57:08.201Z,10.57
2018-12-03T04:59:35.574Z,9.83
2018-12-03T05:02:02.969Z,11.70
2018-12-03T05:04:30.361Z,10.90
2018-12-03T05:06:57.732Z,10.27
2018-12-03T05:09:25.128Z,10.03
2018-12-03T05:11:52.492Z,13.40
2018-12-03T05:14:19.860Z,8.93
2018-12-03T05:16:47.225Z,10.53
2018-12-03T05:19:14.608Z,11.23
2018-12-03T05:21:41.969Z,8.70
2018-12-03T05:24:09.336Z,8.93
2018-12-03T05:26:36.731Z,12.13
2018-12-03T05:29:04.625Z,9.70
2018-12-03T05:31:32.000Z,12.77
2018-12-03T05:33:59.372Z,10.93
2018-12-03T05:36:26.753Z,10.53
2018-12-03T05:38:54.112Z,10.70
2018-12-03T05:41:21.495Z,9.33
2018-12-03T05:43:48.881Z,12.40
2018-12-03T05:46:16.282Z,8.77
2018-12-03T05:48:43.660Z,12.03
2018-12-03T05:51:11.036Z,10.47
2018-12-03T05:53:38.396Z,11.37
2018-12-03T05:56:05.777Z,10.87
2018-12-03T05:58:33.168Z,10.23
2018-12-03T06:01:00.533Z,8.93
2018-12-03T06:03:27.909Z,12.13
2018-12-03T06:05:55.335Z,12.37
2018-12-03T06:08:22.716Z,10.50
2018-12-03T06:10:50.112Z,9.13
2018-12-03T06:13:17.500Z,9.53
2018-12-03T06:15:44.892Z,9.13
2018-12-03T06:18:12.276Z,10.27
2018-12-03T06:20:39.652Z,8.83
2018-12-03T06:23:07.015Z,8.80
2018-12-03T06:25:34.400Z,9.80
2018-12-03T06:28:01.804Z,11.53
2018-12-03T06:30:29.181Z,9.57
2018-12-03T06:32:56.573Z,10.00
2018-12-03T06:35:27.476Z,13.20
2018-12-03T06:37:54.840Z,15.10
2018-12-03T06:40:26.628Z,10.30
2018-12-03T06:42:54.032Z,12.37
2018-12-03T06:45:25.397Z,9.50
2018-12-03T06:47:55.875Z,14.27
2018-12-03T06:50:23.304Z,12.50
2018-12-03T06:52:50.697Z,9.77
2018-12-03T06:55:18.071Z,10.10
2018-12-03T06:57:45.475Z,9.03
2018-12-03T07:00:14.993Z,9.97
2018-12-03T07:02:43.615Z,10.60
2018-12-03T07:05:11.164Z,11.10
2018-12-03T07:07:38.989Z,10.33
2018-12-03T07:10:11.944Z,11.83
2018-12-03T07:12:39.337Z,11.10
2018-12-03T07:15:08.701Z,9.93
2018-12-03T07:17:36.044Z,9.87
2018-12-03T07:20:06.436Z,11.67
2018-12-03T07:22:33.813Z,10.10
2018-12-03T07:25:01.198Z,10.10
2018-12-03T07:27:28.581Z,11.93
2018-12-03T07:29:55.970Z,10.80
2018-12-03T07:32:23.385Z,10.93
2018-12-03T07:34:50.775Z,10.77
2018-12-03T07:37:18.167Z,10.10
2018-12-03T07:39:45.584Z,10.77
2018-12-03T07:42:12.953Z,8.57
2018-12-03T07:44:40.352Z,10.00
2018-12-03T07:47:07.732Z,9.00
2018-12-03T07:49:35.108Z,9.90
2018-12-03T07:52:02.504Z,11.60
2018-12-03T07:54:29.880Z,13.50
2018-12-03T07:56:57.268Z,9.83
2018-12-03T07:59:24.673Z,10.90
2018-12-03T08:01:52.060Z,12.90
2018-12-03T08:04:19.444Z,10.63
2018-12-03T08:06:46.860Z,10.93
2018-12-03T08:09:14.248Z,11.60
2018-12-03T08:11:41.624Z,15.77
2018-12-03T08:14:10.018Z,11.50
2018-12-03T08:16:40.600Z,11.00
2018-12-03T08:19:07.964Z,12.80
2018-12-03T08:21:35.358Z,12.07
2018-12-03T08:24:08.476Z,15.63
2018-12-03T08:26:35.872Z,12.27
2018-12-03T08:29:03.264Z,11.07
2018-12-03T08:31:30.611Z,12.93
2018-12-03T08:33:57.973Z,10.57
2018-12-03T08:36:25.384Z,14.10
2018-12-03T08:38:52.735Z,11.90
2018-12-03T08:41:20.104Z,10.93
2018-12-03T08:43:47.475Z,10.70
2018-12-03T08:46:14.834Z,12.00
2018-12-03T08:48:42.202Z,11.77
2018-12-03T08:51:11.008Z,12.77
2018-12-03T08:53:38.373Z,11.73
2018-12-03T08:56:05.920Z,19.03
2018-12-03T08:58:33.346Z,15.13
2018-12-03T09:01:06.043Z,21.03
2018-12-03T09:03:33.459Z,14.77
2018-12-03T09:06:05.392Z,17.03
2018-12-03T09:08:32.771Z,16.30
2018-12-03T09:11:00.139Z,15.43
2018-12-03T09:13:27.472Z,15.33
2018-12-03T09:15:56.350Z,13.10
2018-12-03T09:18:25.852Z,12.80
2018-12-03T09:20:53.189Z,15.27
2018-12-03T09:23:20.575Z,14.27
2018-12-03T09:25:47.927Z,23.27
2018-12-03T09:28:15.301Z,15.20
2018-12-03T09:30:42.659Z,15.20
2018-12-03T09:33:10.029Z,15.73
2018-12-03T09:35:37.399Z,11.50
2018-12-03T09:38:05.149Z,13.20
2018-12-03T09:40:32.499Z,12.30
2018-12-03T09:42:59.847Z,8.90
2018-12-03T09:45:27.215Z,9.33
2018-12-03T09:47:54.594Z,7.97
2018-12-03T09:50:22.651Z,8.17
2018-12-03T09:52:50.111Z,7.93
2018-12-03T09:55:18.924Z,7.77
2018-12-03T09:57:52.108Z,7.73
2018-12-03T10:00:19.469Z,7.27
2018-12-03T10:02:46.797Z,7.00
2018-12-03T10:05:14.665Z,7.60
2018-12-03T10:07:42.024Z,7.50
2018-12-03T10:10:10.720Z,8.50
2018-12-03T10:12:41.460Z,8.20
2018-12-03T10:15:09.759Z,6.80
2018-12-03T10:17:37.156Z,6.23
2018-12-03T10:20:06.419Z,7.83
2018-12-03T10:22:33.780Z,6.90
2018-12-03T10:25:01.924Z,6.83
2018-12-03T10:27:29.297Z,7.43
2018-12-03T10:29:56.672Z,7.23
2018-12-03T10:32:24.017Z,7.00
2018-12-03T10:34:51.366Z,7.23
2018-12-03T10:37:19.595Z,7.23
2018-12-03T10:39:46.948Z,7.47
2018-12-03T10:42:15.029Z,5.83
2018-12-03T10:44:42.415Z,6.43
2018-12-03T10:47:09.884Z,7.40
2018-12-03T10:49:37.297Z,8.93
2018-12-03T10:52:04.987Z,6.83
2018-12-03T10:54:33.960Z,7.63
2018-12-03T10:57:06.012Z,8.00
2018-12-03T10:59:33.424Z,14.90
2018-12-03T11:02:06.551Z,10.03
2018-12-03T11:04:40.028Z,8.97
2018-12-03T11:07:11.120Z,7.73
2018-12-03T11:09:38.483Z,6.73
2018-12-03T11:12:05.873Z,9.77
2018-12-03T11:14:33.249Z,8.70
2018-12-03T11:17:00.650Z,9.70
2018-12-03T11:19:28.016Z,7.50
2018-12-03T11:21:55.420Z,11.80
2018-12-03T11:24:22.792Z,5.83
2018-12-03T11:26:51.131Z,5.93
2018-12-03T11:29:18.516Z,7.47
2018-12-03T11:31:45.892Z,5.63
2018-12-03T11:34:13.271Z,5.60
2018-12-03T11:36:41.795Z,6.07
2018-12-03T11:39:17.929Z,4.80
2018-12-03T11:41:45.354Z,5.30
2018-12-03T11:44:12.704Z,5.10
2018-12-03T11:46:40.056Z,5.03
2018-12-03T11:49:07.436Z,5.53
2018-12-03T11:51:34.807Z,5.23
2018-12-03T11:54:02.184Z,5.60
2018-12-03T11:56:29.578Z,7.03
2018-12-03T11:58:56.937Z,4.67
2018-12-03T12:01:24.284Z,8.57
2018-12-03T12:03:51.652Z,5.20
2018-12-03T12:06:19.022Z,5.63
2018-12-03T12:08:50.216Z,4.90
2018-12-03T12:11:17.555Z,4.40
2018-12-03T12:13:44.929Z,4.67
2018-12-03T12:16:12.274Z,4.50
2018-12-03T12:18:39.608Z,5.87
2018-12-03T12:21:07.012Z,4.40
2018-12-03T12:23:34.383Z,5.27
2018-12-03T12:26:01.724Z,5.23
2018-12-03T12:28:29.183Z,5.27
2018-12-03T12:30:56.552Z,5.30
2018-12-03T12:33:23.896Z,11.33
2018-12-03T12:35:54.839Z,5.27
2018-12-03T12:38:22.188Z,6.23
2018-12-03T12:40:49.551Z,4.90
2018-12-03T12:43:16.925Z,4.63
2018-12-03T12:45:48.904Z,5.17
2018-12-03T12:51:08.232Z,6.37
2018-12-03T12:53:35.579Z,8.50
2018-12-03T12:56:02.948Z,8.43
2018-12-03T12:58:30.315Z,6.20
2018-12-03T13:00:57.676Z,7.20
2018-12-03T13:03:25.027Z,10.50
2018-12-03T13:05:52.367Z,7.87
2018-12-03T13:08:19.728Z,7.07
2018-12-03T13:10:47.082Z,8.57
2018-12-03T13:13:14.416Z,8.40
2018-12-03T13:15:41.765Z,10.10
2018-12-03T13:18:09.446Z,4.93
2018-12-03T13:20:36.491Z,5.47
2018-12-03T13:23:03.876Z,6.70
2018-12-03T13:25:31.255Z,5.40
2018-12-03T13:27:58.600Z,5.80
2018-12-03T13:30:26.023Z,5.90
2018-12-03T13:32:53.405Z,9.60
2018-12-03T13:35:20.794Z,16.23
2018-12-03T13:37:48.144Z,6.20
2018-12-03T13:40:15.933Z,6.60
2018-12-03T13:42:43.632Z,8.57
2018-12-03T13:45:14.669Z,5.40
2018-12-03T13:47:42.031Z,7.27
2018-12-03T13:50:12.981Z,5.90
2018-12-03T13:52:40.434Z,6.10
2018-12-03T13:55:11.440Z,10.17
2018-12-03T13:57:40.614Z,9.03
2018-12-03T14:00:09.891Z,11.73
2018-12-03T14:02:37.240Z,8.53
2018-12-03T14:05:05.215Z,6.70
2018-12-03T14:07:34.278Z,6.23
2018-12-03T14:10:13.192Z,6.90
2018-12-03T14:12:42.788Z,8.93
2018-12-03T14:15:15.779Z,8.80
2018-12-03T14:17:56.967Z,6.60
2018-12-03T14:20:25.453Z,10.53
2018-12-03T14:22:57.723Z,7.20
2018-12-03T14:25:25.079Z,6.87
2018-12-03T14:27:52.435Z,9.00
2018-12-03T14:30:20.856Z,7.30
2018-12-03T14:32:48.212Z,7.50
2018-12-03T14:35:15.579Z,11.23
2018-12-03T14:37:42.911Z,6.80
2018-12-03T14:40:10.299Z,8.13
2018-12-03T14:42:37.660Z,8.13
2018-12-03T14:45:08.316Z,6.57
2018-12-03T14:47:35.701Z,12.30
2018-12-03T14:50:07.541Z,5.60
2018-12-03T14:52:34.880Z,8.27
2018-12-03T14:55:02.523Z,5.23
2018-12-03T14:57:29.879Z,5.07
2018-12-03T14:59:57.285Z,5.00
2018-12-03T15:02:24.600Z,6.40
2018-12-03T15:04:51.960Z,5.90
2018-12-03T15:07:19.331Z,9.20
2018-12-03T15:09:46.691Z,5.53
2018-12-03T15:12:14.031Z,7.10
2018-12-03T15:14:41.409Z,6.27
2018-12-03T15:17:08.748Z,4.90
2018-12-03T15:19:36.075Z,7.13
2018-12-03T15:22:03.440Z,5.33
2018-12-03T15:24:30.792Z,6.07
2018-12-03T15:26:58.125Z,6.17
2018-12-03T15:29:25.456Z,8.63
2018-12-03T15:31:52.821Z,10.00
2018-12-03T15:34:20.172Z,9.60
2018-12-03T15:36:47.511Z,7.37
2018-12-03T15:39:14.872Z,9.70
2018-12-03T15:41:42.223Z,6.50
2018-12-03T15:44:09.565Z,6.03
2018-12-03T15:46:36.929Z,10.43
2018-12-03T15:49:04.268Z,16.37
2018-12-03T15:51:31.596Z,7.53
2018-12-03T15:53:58.934Z,9.80
2018-12-03T15:56:26.303Z,8.47
2018-12-03T15:58:53.644Z,8.70
2018-12-03T16:01:21.028Z,6.57
2018-12-03T16:03:48.368Z,6.93
2018-12-03T16:06:15.708Z,6.37
2018-12-03T16:08:43.075Z,7.10
2018-12-03T16:11:11.144Z,5.87
2018-12-03T16:13:37.776Z,7.93
2018-12-03T16:16:05.124Z,5.87
2018-12-03T16:18:32.460Z,5.70
2018-12-03T16:20:59.804Z,7.90
2018-12-03T16:23:27.156Z,7.13
2018-12-03T16:25:54.648Z,7.30
2018-12-03T16:28:21.976Z,5.97
2018-12-03T16:30:49.323Z,16.10
2018-12-03T16:33:16.683Z,6.43
2018-12-03T16:35:44.026Z,6.87
2018-12-03T16:38:11.368Z,6.23
2018-12-03T16:40:38.727Z,6.50
2018-12-03T16:43:06.079Z,7.13
2018-12-03T16:45:33.449Z,7.20
2018-12-03T16:48:04.633Z,8.00
2018-12-03T16:50:31.984Z,8.10
2018-12-03T16:52:59.332Z,9.50
2018-12-03T16:55:26.699Z,7.20
2018-12-03T16:57:54.055Z,8.50
2018-12-03T17:00:21.400Z,8.67
2018-12-03T17:02:48.744Z,7.03
2018-12-03T17:05:16.093Z,7.17
2018-12-03T17:07:43.472Z,8.70
2018-12-03T17:10:12.881Z,7.30
2018-12-03T17:12:40.208Z,8.77
2018-12-03T17:15:07.587Z,10.33
2018-12-03T17:17:34.924Z,9.93
2018-12-03T17:20:02.819Z,9.30
2018-12-03T17:22:32.388Z,10.93
2018-12-03T17:24:59.725Z,8.37
2018-12-03T17:27:27.067Z,11.97
2018-12-03T17:29:54.399Z,8.83
2018-12-03T17:32:21.744Z,12.77
2018-12-03T17:34:49.075Z,10.17
2018-12-03T17:37:16.431Z,14.17
2018-12-03T17:39:43.780Z,12.17
2018-12-03T17:42:11.123Z,11.10
2018-12-03T17:44:38.491Z,9.90
2018-12-03T17:47:05.828Z,12.70
2018-12-03T17:49:33.167Z,12.53
2018-12-03T17:52:00.541Z,12.90
2018-12-03T17:54:31.472Z,11.60
2018-12-03T17:56:58.827Z,11.47
2018-12-03T17:59:26.171Z,13.00
2018-12-03T18:01:54.048Z,15.77
2018-12-03T18:04:21.404Z,14.20
2018-12-03T18:06:48.743Z,13.83
2018-12-03T18:12:08.317Z,15.80
2018-12-03T18:14:35.743Z,24.17
2018-12-03T18:17:03.104Z,25.07
2018-12-03T18:19:30.440Z,17.00
2018-12-03T18:21:58.792Z,20.17
2018-12-03T18:24:26.132Z,18.43
2018-12-03T18:26:53.507Z,19.80
2018-12-03T18:29:20.855Z,17.30
2018-12-03T18:31:48.247Z,14.50
2018-12-03T18:34:15.592Z,20.40
2018-12-03T18:36:42.936Z,13.63
2018-12-03T18:39:10.280Z,13.40
2018-12-03T18:41:37.615Z,14.30
2018-12-03T18:44:04.963Z,12.10
2018-12-03T18:46:32.312Z,13.33
2018-12-03T18:49:06.573Z,11.73
2018-12-03T18:51:35.013Z,11.80
2018-12-03T18:54:02.360Z,15.90
2018-12-03T18:56:29.696Z,15.67
2018-12-03T18:58:59.980Z,18.83
2018-12-03T19:01:27.315Z,12.07
2018-12-03T19:03:54.652Z,12.20
2018-12-03T19:06:22.016Z,10.37
2018-12-03T19:08:49.370Z,12.13
2018-12-03T19:11:16.752Z,15.60
2018-12-03T19:13:44.293Z,10.17
2018-12-03T19:16:12.008Z,11.43
2018-12-03T19:18:39.444Z,9.87
2018-12-03T19:21:06.882Z,13.53
2018-12-03T19:23:34.464Z,10.30
2018-12-03T19:26:02.993Z,16.60
2018-12-03T19:28:30.679Z,11.50
2018-12-03T19:30:58.268Z,11.70
2018-12-03T19:33:26.817Z,9.80
2018-12-03T19:35:55.924Z,10.10
2018-12-03T19:38:24.294Z,10.30
2018-12-03T19:40:52.437Z,13.83
2018-12-03T19:43:20.662Z,10.07
2018-12-03T19:45:48.707Z,12.57
2018-12-03T19:48:16.989Z,9.80
2018-12-03T19:50:47.038Z,15.33
2018-12-03T19:53:14.885Z,11.90
2018-12-03T19:55:44.151Z,11.70
2018-12-03T19:58:29.960Z,10.57
2018-12-03T20:00:58.379Z,14.60
2018-12-03T20:03:28.483Z,8.63
2018-12-03T20:06:00.203Z,11.70
2018-12-03T20:08:29.559Z,10.27
2018-12-03T20:10:58.954Z,16.17
2018-12-03T20:13:28.463Z,11.20
2018-12-03T20:15:57.774Z,8.30
2018-12-03T20:18:26.878Z,14.23
2018-12-03T20:20:57.317Z,9.73
2018-12-03T20:23:27.984Z,13.90
2018-12-03T20:26:01.015Z,11.67
2018-12-03T20:28:34.118Z,11.80
2018-12-03T20:31:09.883Z,11.67
2018-12-03T20:33:44.070Z,9.73
2018-12-03T20:36:18.276Z,11.15
2018-12-03T20:38:56.435Z,9.50
2018-12-03T20:41:27.221Z,9.57
2018-12-03T20:43:58.990Z,8.50
2018-12-03T20:46:48.776Z,10.03
2018-12-03T20:49:26.269Z,8.83
2018-12-03T20:51:59.562Z,9.20
2018-12-03T20:54:28.759Z,15.47
2018-12-03T20:56:57.861Z,13.17
2018-12-03T20:59:27.352Z,13.20
2018-12-03T21:01:56.626Z,12.00
2018-12-03T21:04:25.623Z,19.10
2018-12-03T21:06:54.891Z,14.28
2018-12-03T21:09:23.196Z,11.27
2018-12-03T21:11:52.302Z,17.37
2018-12-03T21:14:20.741Z,14.90
2018-12-03T21:16:48.902Z,14.10
2018-12-03T21:19:16.854Z,9.07
2018-12-03T21:21:44.326Z,12.57
2018-12-03T21:24:12.003Z,7.83
2018-12-03T21:26:39.975Z,8.20
2018-12-03T21:29:07.519Z,7.77
2018-12-03T21:31:34.955Z,7.10
2018-12-03T21:34:02.472Z,8.13
2018-12-03T21:36:29.865Z,15.27
2018-12-03T21:38:57.344Z,6.33
2018-12-03T21:41:24.862Z,7.73
2018-12-03T21:43:52.240Z,7.47
2018-12-03T21:46:19.624Z,10.70
2018-12-03T21:48:46.984Z,6.37
2018-12-03T21:51:18.037Z,8.53
2018-12-03T21:53:46.471Z,7.53
2018-12-03T21:56:14.860Z,14.43
2018-12-03T21:58:42.225Z,6.60
2018-12-03T22:01:09.647Z,6.50
2018-12-03T22:03:37.016Z,6.50
2018-12-03T22:06:04.406Z,7.67
2018-12-03T22:08:31.783Z,8.13
2018-12-03T22:10:59.159Z,8.80
2018-12-03T22:13:26.498Z,7.70
2018-12-03T22:15:53.864Z,7.23
2018-12-03T22:18:21.219Z,6.00
2018-12-03T22:20:51.824Z,6.07
2018-12-03T22:23:22.456Z,8.27
2018-12-03T22:25:49.836Z,8.60
2018-12-03T22:28:17.191Z,7.57
2018-12-03T22:30:44.567Z,5.63
2018-12-03T22:33:11.919Z,7.67
2018-12-03T22:35:39.268Z,7.60
2018-12-03T22:38:06.615Z,6.93
2018-12-03T22:40:33.972Z,6.13
2018-12-03T22:43:01.328Z,9.10
2018-12-03T22:45:28.752Z,9.30
2018-12-03T22:47:56.115Z,6.93
2018-12-03T22:50:23.452Z,8.23
2018-12-03T22:52:50.791Z,10.10
2018-12-03T22:55:18.176Z,11.37
2018-12-03T22:57:45.515Z,13.67
2018-12-03T23:00:19.250Z,6.57
2018-12-03T23:02:46.634Z,7.37
2018-12-03T23:05:13.985Z,11.93
2018-12-03T23:07:41.347Z,8.20
2018-12-03T23:10:11.940Z,14.03
2018-12-03T23:12:39.303Z,11.90
2018-12-03T23:15:06.911Z,10.13
2018-12-03T23:17:34.260Z,7.17
2018-12-03T23:20:01.631Z,9.17
2018-12-03T23:22:28.963Z,6.40
2018-12-03T23:24:56.315Z,6.40
2018-12-03T23:27:23.664Z,14.13
2018-12-03T23:29:54.071Z,6.83
2018-12-03T23:32:21.447Z,13.57
2018-12-03T23:34:48.795Z,10.43
2018-12-03T23:37:16.136Z,11.03
2018-12-03T23:39:43.487Z,11.70
2018-12-03T23:42:10.867Z,10.03
2018-12-03T23:44:41.648Z,5.33
2018-12-03T23:47:09.010Z,16.73
2018-12-03T23:49:36.363Z,5.80
2018-12-03T23:52:03.735Z,5.77
2018-12-03T23:54:31.095Z,10.73
2018-12-03T23:56:58.448Z,11.40
2018-12-03T23:59:25.815Z,6.87
